createdAt,value
2019-05-01T00:00:51.259Z,10.3
2019-05-01T00:01:51.242Z,10.3
2019-05-01T00:02:51.265Z,10.3
2019-05-01T00:03:51.329Z,10.3
2019-05-01T00:04:51.361Z,10.3
2019-05-01T00:05:51.424Z,10.3
2019-05-01T00:06:51.430Z,10.3
2019-05-01T00:07:51.518Z,10.3
2019-05-01T00:08:51.634Z,10.3
2019-05-01T00:09:51.583Z,10.3
2019-05-01T00:10:51.692Z,10.3
2019-05-01T00:11:51.729Z,10.3
2019-05-01T00:12:51.780Z,10.3
2019-05-01T00:13:51.878Z,10.3
2019-05-01T00:14:51.889Z,10.3
2019-05-01T00:15:51.945Z,10.3
2019-05-01T00:16:52.033Z,10.3
2019-05-01T00:17:52.016Z,10.3
2019-05-01T00:18:52.105Z,10.3
2019-05-01T00:19:52.139Z,10.3
2019-05-01T00:20:52.248Z,10.3
2019-05-01T00:21:52.258Z,10.3
2019-05-01T00:22:52.296Z,10.3
2019-05-01T00:23:52.413Z,10.3
2019-05-01T00:24:52.429Z,10.3
2019-05-01T00:25:52.499Z,10.3
2019-05-01T00:26:52.601Z,10.3
2019-05-01T00:27:52.616Z,10.2
2019-05-01T00:28:52.679Z,10.2
2019-05-01T00:29:52.687Z,10.2
2019-05-01T00:30:52.727Z,10.2
2019-05-01T00:31:52.815Z,10.3
2019-05-01T00:32:52.879Z,10.2
2019-05-01T00:33:52.964Z,10.2
2019-05-01T00:34:52.990Z,10.2
2019-05-01T00:35:53.016Z,10.2
2019-05-01T00:36:53.060Z,10.2
2019-05-01T00:37:53.137Z,10.2
2019-05-01T00:38:53.269Z,10.2
2019-05-01T00:39:53.244Z,10.2
2019-05-01T00:40:53.314Z,10.2
2019-05-01T00:41:53.337Z,10.2
2019-05-01T00:42:53.373Z,10.2
2019-05-01T00:43:53.522Z,10.2
2019-05-01T00:44:53.484Z,10.2
2019-05-01T00:45:53.554Z,10.2
2019-05-01T00:46:53.579Z,10.2
2019-05-01T00:47:53.633Z,10.2
2019-05-01T00:49:02.695Z,10.2
2019-05-01T00:49:53.741Z,10.2
2019-05-01T00:50:53.810Z,10.2
2019-05-01T00:51:53.834Z,10.2
2019-05-01T00:52:53.961Z,10.1
2019-05-01T00:53:53.962Z,10.1
2019-05-01T00:54:54.005Z,10.1
2019-05-01T00:55:54.070Z,10.1
2019-05-01T00:56:54.115Z,10.1
2019-05-01T00:57:54.144Z,10.1
2019-05-01T00:58:54.209Z,10.1
2019-05-01T00:59:54.289Z,10.1
2019-05-01T01:00:54.332Z,10.1
2019-05-01T01:01:54.370Z,10.1
2019-05-01T01:02:54.420Z,10.1
2019-05-01T01:03:54.492Z,10.1
2019-05-01T01:04:54.539Z,10.1
2019-05-01T01:05:54.571Z,10.1
2019-05-01T01:06:54.613Z,10.1
2019-05-01T01:07:54.698Z,10.1
2019-05-01T01:08:54.725Z,10.1
2019-05-01T01:09:54.785Z,10
2019-05-01T01:10:54.830Z,10.1
2019-05-01T01:11:55.005Z,10
2019-05-01T01:12:55.053Z,10
2019-05-01T01:13:55.034Z,10
2019-05-01T01:14:55.082Z,10
2019-05-01T01:15:55.120Z,10
2019-05-01T01:16:55.238Z,10
2019-05-01T01:17:55.265Z,10
2019-05-01T01:18:55.346Z,10
2019-05-01T01:19:55.378Z,9.9
2019-05-01T01:20:55.433Z,9.9
2019-05-01T01:21:55.494Z,9.9
2019-05-01T01:22:55.557Z,9.9
2019-05-01T01:23:55.564Z,9.9
2019-05-01T01:24:55.642Z,9.9
2019-05-01T01:25:55.675Z,9.9
2019-05-01T01:26:55.765Z,9.9
2019-05-01T01:27:55.776Z,9.9
2019-05-01T01:28:55.895Z,9.8
2019-05-01T01:29:55.872Z,9.8
2019-05-01T01:30:56.895Z,9.8
2019-05-01T01:31:56.004Z,9.8
2019-05-01T01:32:56.080Z,9.8
2019-05-01T01:33:56.078Z,9.8
2019-05-01T01:34:56.129Z,9.8
2019-05-01T01:35:56.162Z,9.8
2019-05-01T01:36:56.189Z,9.8
2019-05-01T01:37:56.407Z,9.8
2019-05-01T01:38:56.469Z,9.8
2019-05-01T01:39:56.367Z,9.8
2019-05-01T01:40:56.395Z,9.8
2019-05-01T01:41:56.485Z,9.8
2019-05-01T01:42:56.542Z,9.8
2019-05-01T01:43:56.577Z,9.7
2019-05-01T01:44:56.665Z,9.7
2019-05-01T01:45:56.760Z,9.7
2019-05-01T01:46:56.767Z,9.7
2019-05-01T01:47:56.851Z,9.7
2019-05-01T01:48:56.861Z,9.7
2019-05-01T01:49:56.961Z,9.7
2019-05-01T01:50:56.952Z,9.7
2019-05-01T01:51:57.033Z,9.7
2019-05-01T01:52:57.120Z,9.7
2019-05-01T01:53:57.169Z,9.6
2019-05-01T01:54:57.230Z,9.6
2019-05-01T01:55:57.263Z,9.6
2019-05-01T01:56:57.332Z,9.6
2019-05-01T01:57:57.354Z,9.6
2019-05-01T01:58:57.469Z,9.6
2019-05-01T01:59:57.448Z,9.6
2019-05-01T02:01:08.871Z,9.6
2019-05-01T02:01:57.649Z,9.6
2019-05-01T02:02:57.819Z,9.6
2019-05-01T02:03:57.698Z,9.6
2019-05-01T02:04:57.769Z,9.6
2019-05-01T02:05:57.840Z,9.6
2019-05-01T02:06:57.927Z,9.6
2019-05-01T02:07:57.926Z,9.6
2019-05-01T02:08:57.941Z,9.6
2019-05-01T02:09:58.017Z,9.6
2019-05-01T02:10:58.055Z,9.6
2019-05-01T02:11:58.107Z,9.6
2019-05-01T02:12:58.134Z,9.6
2019-05-01T02:13:58.247Z,9.6
2019-05-01T02:14:58.287Z,9.6
2019-05-01T02:15:58.337Z,9.5
2019-05-01T02:16:58.372Z,9.5
2019-05-01T02:17:58.429Z,9.5
2019-05-01T02:18:58.496Z,9.5
2019-05-01T02:19:58.528Z,9.5
2019-05-01T02:20:58.600Z,9.5
2019-05-01T02:21:58.655Z,9.5
2019-05-01T02:22:58.718Z,9.5
2019-05-01T02:23:58.845Z,9.5
2019-05-01T02:24:58.849Z,9.5
2019-05-01T02:25:58.914Z,9.5
2019-05-01T02:26:58.959Z,9.5
2019-05-01T02:27:58.990Z,9.5
2019-05-01T02:28:59.014Z,9.5
2019-05-01T02:29:59.119Z,9.6
2019-05-01T02:30:59.131Z,9.6
2019-05-01T02:31:59.246Z,9.6
2019-05-01T02:32:59.249Z,9.6
2019-05-01T02:33:59.329Z,9.6
2019-05-01T02:34:59.389Z,9.6
2019-05-01T02:35:59.430Z,9.6
2019-05-01T02:36:59.507Z,9.6
2019-05-01T02:37:59.575Z,9.6
2019-05-01T02:38:59.623Z,9.6
2019-05-01T02:39:59.670Z,9.6
2019-05-01T02:40:59.739Z,9.6
2019-05-01T02:41:59.787Z,9.6
2019-05-01T02:42:59.849Z,9.6
2019-05-01T02:43:59.905Z,9.6
2019-05-01T02:44:59.954Z,9.6
2019-05-01T02:46:00.017Z,9.6
2019-05-01T02:47:00.063Z,9.6
2019-05-01T02:48:00.497Z,9.6
2019-05-01T02:49:00.546Z,9.6
2019-05-01T02:50:00.550Z,9.6
2019-05-01T02:51:00.500Z,9.6
2019-05-01T02:52:00.510Z,9.6
2019-05-01T02:53:00.513Z,9.6
2019-05-01T02:54:00.481Z,9.6
2019-05-01T02:55:00.541Z,9.6
2019-05-01T02:56:00.680Z,9.6
2019-05-01T02:57:00.742Z,9.6
2019-05-01T02:58:00.706Z,9.6
2019-05-01T02:59:00.736Z,9.6
2019-05-01T03:00:00.801Z,9.6
2019-05-01T03:01:00.870Z,9.6
2019-05-01T03:02:00.963Z,9.6
2019-05-01T03:03:00.967Z,9.6
2019-05-01T03:04:01.054Z,9.6
2019-05-01T03:05:01.078Z,9.6
2019-05-01T03:06:01.134Z,9.6
2019-05-01T03:07:01.217Z,9.6
2019-05-01T03:08:01.231Z,9.6
2019-05-01T03:09:01.276Z,9.6
2019-05-01T03:10:01.518Z,9.6
2019-05-01T03:11:01.759Z,9.6
2019-05-01T03:12:01.471Z,9.6
2019-05-01T03:13:01.580Z,9.6
2019-05-01T03:14:01.581Z,9.6
2019-05-01T03:15:01.628Z,9.6
2019-05-01T03:16:01.964Z,9.6
2019-05-01T03:17:01.750Z,9.6
2019-05-01T03:18:01.787Z,9.6
2019-05-01T03:19:01.835Z,9.6
2019-05-01T03:20:01.924Z,9.6
2019-05-01T03:21:01.956Z,9.6
2019-05-01T03:22:02.022Z,9.6
2019-05-01T03:23:02.093Z,9.6
2019-05-01T03:24:02.109Z,9.6
2019-05-01T03:25:02.205Z,9.6
2019-05-01T03:26:02.217Z,9.6
2019-05-01T03:27:02.317Z,9.6
2019-05-01T03:28:02.341Z,9.6
2019-05-01T03:29:02.370Z,9.6
2019-05-01T03:30:02.427Z,9.6
2019-05-01T03:31:02.532Z,9.6
2019-05-01T03:32:16.419Z,9.6
2019-05-01T03:33:02.652Z,9.6
2019-05-01T03:34:02.732Z,9.7
2019-05-01T03:35:02.785Z,9.7
2019-05-01T03:36:02.833Z,9.7
2019-05-01T03:37:02.908Z,9.7
2019-05-01T03:38:02.905Z,9.7
2019-05-01T03:39:02.946Z,9.7
2019-05-01T03:40:03.012Z,9.7
2019-05-01T03:41:03.065Z,9.7
2019-05-01T03:42:03.146Z,9.7
2019-05-01T03:43:03.196Z,9.7
2019-05-01T03:44:03.281Z,9.7
2019-05-01T03:45:03.315Z,9.7
2019-05-01T03:46:03.372Z,9.7
2019-05-01T03:47:03.419Z,9.7
2019-05-01T03:48:03.488Z,9.7
2019-05-01T03:49:03.535Z,9.7
2019-05-01T03:50:03.590Z,9.7
2019-05-01T03:51:03.605Z,9.6
2019-05-01T03:52:03.850Z,9.6
2019-05-01T03:53:03.763Z,9.6
2019-05-01T03:54:03.797Z,9.6
2019-05-01T03:55:03.854Z,9.6
2019-05-01T03:56:03.917Z,9.6
2019-05-01T03:57:03.951Z,9.6
2019-05-01T03:58:04.013Z,9.6
2019-05-01T03:59:04.029Z,9.6
2019-05-01T04:00:04.126Z,9.6
2019-05-01T04:01:04.206Z,9.6
2019-05-01T04:02:04.227Z,9.6
2019-05-01T04:03:04.362Z,9.6
2019-05-01T04:04:04.323Z,9.6
2019-05-01T04:05:04.382Z,9.6
2019-05-01T04:06:04.428Z,9.6
2019-05-01T04:07:04.445Z,9.6
2019-05-01T04:08:04.509Z,9.6
2019-05-01T04:09:04.594Z,9.6
2019-05-01T04:10:04.877Z,9.6
2019-05-01T04:11:04.699Z,9.6
2019-05-01T04:12:04.719Z,9.6
2019-05-01T04:13:04.856Z,9.6
2019-05-01T04:14:04.843Z,9.6
2019-05-01T04:15:04.935Z,9.6
2019-05-01T04:16:05.015Z,9.6
2019-05-01T04:17:05.065Z,9.6
2019-05-01T04:18:05.106Z,9.6
2019-05-01T04:19:05.174Z,9.6
2019-05-01T04:20:05.207Z,9.6
2019-05-01T04:21:05.266Z,9.6
2019-05-01T04:22:05.291Z,9.6
2019-05-01T04:23:05.376Z,9.6
2019-05-01T04:24:05.396Z,9.6
2019-05-01T04:25:05.417Z,9.6
2019-05-01T04:26:05.487Z,9.6
2019-05-01T04:27:05.538Z,9.6
2019-05-01T04:28:05.604Z,9.5
2019-05-01T04:29:05.682Z,9.5
2019-05-01T04:30:05.666Z,9.5
2019-05-01T04:31:05.713Z,9.5
2019-05-01T04:32:05.798Z,9.6
2019-05-01T04:33:05.867Z,9.5
2019-05-01T04:34:05.900Z,9.6
2019-05-01T04:35:06.015Z,9.5
2019-05-01T04:36:06.306Z,9.6
2019-05-01T04:37:06.183Z,9.6
2019-05-01T04:38:06.198Z,9.6
2019-05-01T04:39:06.294Z,9.6
2019-05-01T04:40:07.050Z,9.6
2019-05-01T04:41:06.330Z,9.6
2019-05-01T04:42:06.411Z,9.6
2019-05-01T04:43:06.461Z,9.6
2019-05-01T04:44:06.520Z,9.6
2019-05-01T04:45:06.591Z,9.6
2019-05-01T04:46:07.314Z,9.6
2019-05-01T04:47:06.669Z,9.6
2019-05-01T04:48:07.195Z,9.6
2019-05-01T04:49:06.806Z,9.6
2019-05-01T04:50:06.849Z,9.6
2019-05-01T04:51:06.913Z,9.7
2019-05-01T04:52:08.007Z,9.7
2019-05-01T04:53:06.995Z,9.7
2019-05-01T04:54:07.031Z,9.7
2019-05-01T04:55:07.089Z,9.7
2019-05-01T04:56:14.786Z,9.7
2019-05-01T04:57:07.209Z,9.7
2019-05-01T04:58:07.770Z,9.7
2019-05-01T04:59:07.417Z,9.8
2019-05-01T05:00:08.406Z,9.8
2019-05-01T05:01:07.453Z,9.8
2019-05-01T05:02:08.709Z,9.8
2019-05-01T05:03:07.567Z,9.8
2019-05-01T05:04:08.694Z,9.8
2019-05-01T05:05:07.720Z,9.8
2019-05-01T05:06:09.010Z,9.8
2019-05-01T05:07:07.788Z,9.8
2019-05-01T05:08:09.357Z,9.8
2019-05-01T05:09:07.930Z,9.8
2019-05-01T05:10:09.030Z,9.8
2019-05-01T05:11:07.992Z,9.8
2019-05-01T05:12:09.197Z,9.9
2019-05-01T05:13:08.071Z,9.9
2019-05-01T05:14:11.105Z,9.9
2019-05-01T05:15:08.225Z,9.9
2019-05-01T05:16:10.763Z,9.9
2019-05-01T05:17:08.333Z,9.9
2019-05-01T05:18:10.426Z,9.9
2019-05-01T05:19:08.441Z,9.9
2019-05-01T05:20:09.220Z,9.9
2019-05-01T05:21:08.597Z,9.9
2019-05-01T05:22:10.835Z,9.9
2019-05-01T05:23:08.678Z,9.9
2019-05-01T05:24:11.055Z,9.9
2019-05-01T05:25:08.771Z,9.9
2019-05-01T05:26:11.145Z,9.9
2019-05-01T05:27:08.909Z,9.9
2019-05-01T05:28:09.665Z,9.9
2019-05-01T05:29:08.950Z,9.9
2019-05-01T05:30:09.100Z,9.9
2019-05-01T05:31:09.602Z,9.9
2019-05-01T05:32:09.245Z,9.9
2019-05-01T05:33:17.991Z,9.9
2019-05-01T05:34:09.310Z,9.9
2019-05-01T05:35:09.319Z,9.9
2019-05-01T05:36:09.366Z,9.9
2019-05-01T05:37:09.446Z,9.9
2019-05-01T05:38:14.540Z,9.9
2019-05-01T05:39:10.858Z,10
2019-05-01T05:40:15.205Z,10
2019-05-01T05:41:10.146Z,10
2019-05-01T05:42:17.509Z,10
2019-05-01T05:43:09.975Z,10
2019-05-01T05:44:18.641Z,10
2019-05-01T05:45:10.202Z,10.1
2019-05-01T05:46:14.138Z,10
2019-05-01T05:47:13.789Z,10.1
2019-05-01T05:48:13.605Z,10.1
2019-05-01T05:49:13.751Z,10.1
2019-05-01T05:50:10.260Z,10.1
2019-05-01T05:51:10.342Z,10.1
2019-05-01T05:52:10.220Z,10.1
2019-05-01T05:53:10.346Z,10.1
2019-05-01T05:54:10.413Z,10.1
2019-05-01T05:55:10.669Z,10.1
2019-05-01T05:56:10.437Z,10.1
2019-05-01T05:57:10.463Z,10.1
2019-05-01T05:58:10.527Z,10.1
2019-05-01T05:59:10.569Z,10.1
2019-05-01T06:00:10.603Z,10.1
2019-05-01T06:01:10.683Z,10.1
2019-05-01T06:02:10.726Z,10.1
2019-05-01T06:03:10.814Z,10.1
2019-05-01T06:04:10.846Z,10.1
2019-05-01T06:05:10.914Z,10.1
2019-05-01T06:06:10.966Z,10.1
2019-05-01T06:07:10.985Z,10.1
2019-05-01T06:08:11.034Z,10.1
2019-05-01T06:09:13.745Z,10.1
2019-05-01T06:10:11.133Z,10.2
2019-05-01T06:11:11.180Z,10.2
2019-05-01T06:12:11.251Z,10.2
2019-05-01T06:13:11.299Z,10.2
2019-05-01T06:14:11.349Z,10.2
2019-05-01T06:15:11.422Z,10.3
2019-05-01T06:16:12.091Z,10.3
2019-05-01T06:17:11.526Z,10.3
2019-05-01T06:18:11.580Z,10.3
2019-05-01T06:19:14.506Z,10.3
2019-05-01T06:20:11.690Z,10.3
2019-05-01T06:21:12.961Z,10.3
2019-05-01T06:22:11.814Z,10.3
2019-05-01T06:23:15.660Z,10.3
2019-05-01T06:24:11.914Z,10.2
2019-05-01T06:26:11.996Z,10.2
2019-05-01T06:27:13.653Z,10.2
2019-05-01T06:28:12.090Z,10.3
2019-05-01T06:29:44.744Z,10.3
2019-05-01T06:30:12.608Z,10.3
2019-05-01T06:31:12.284Z,10.3
2019-05-01T06:32:12.338Z,10.3
2019-05-01T06:33:12.412Z,10.3
2019-05-01T06:34:12.453Z,10.3
2019-05-01T06:35:12.524Z,10.3
2019-05-01T06:36:13.147Z,10.3
2019-05-01T06:37:12.592Z,10.3
2019-05-01T06:38:12.647Z,10.4
2019-05-01T06:39:13.317Z,10.4
2019-05-01T06:40:12.958Z,10.4
2019-05-01T06:41:12.848Z,10.4
2019-05-01T06:42:14.956Z,10.5
2019-05-01T06:43:12.929Z,10.5
2019-05-01T06:44:14.081Z,10.5
2019-05-01T06:45:16.730Z,10.5
2019-05-01T06:46:13.153Z,10.6
2019-05-01T06:47:13.168Z,10.6
2019-05-01T06:48:14.132Z,10.6
2019-05-01T06:49:13.237Z,10.6
2019-05-01T06:50:13.316Z,10.6
2019-05-01T06:51:17.625Z,10.7
2019-05-01T06:52:13.402Z,10.7
2019-05-01T06:53:13.474Z,10.7
2019-05-01T06:54:16.077Z,10.7
2019-05-01T06:55:13.610Z,10.7
2019-05-01T06:56:13.629Z,10.6
2019-05-01T06:57:13.677Z,10.7
2019-05-01T06:58:14.725Z,10.7
2019-05-01T06:59:31.266Z,10.7
2019-05-01T07:00:13.859Z,10.6
2019-05-01T07:01:18.738Z,10.6
2019-05-01T07:02:15.942Z,10.6
2019-05-01T07:03:14.048Z,10.6
2019-05-01T07:04:14.305Z,10.6
2019-05-01T07:05:14.870Z,10.6
2019-05-01T07:06:14.625Z,10.6
2019-05-01T07:07:24.885Z,10.6
2019-05-01T07:08:24.216Z,10.6
2019-05-01T07:09:26.787Z,10.6
2019-05-01T07:10:14.397Z,10.6
2019-05-01T07:11:15.399Z,10.7
2019-05-01T07:12:14.513Z,10.7
2019-05-01T07:13:14.572Z,10.7
2019-05-01T07:14:16.064Z,10.8
2019-05-01T07:15:14.741Z,10.8
2019-05-01T07:16:14.761Z,10.8
2019-05-01T07:17:14.916Z,10.8
2019-05-01T07:18:18.690Z,10.8
2019-05-01T07:19:14.896Z,10.8
2019-05-01T07:20:16.657Z,10.8
2019-05-01T07:21:15.020Z,10.8
2019-05-01T07:22:15.091Z,10.8
2019-05-01T07:23:17.274Z,10.8
2019-05-01T07:24:15.217Z,10.8
2019-05-01T07:25:15.280Z,10.8
2019-05-01T07:26:15.359Z,10.8
2019-05-01T07:27:18.705Z,10.8
2019-05-01T07:28:15.499Z,10.9
2019-05-01T07:29:15.557Z,10.8
2019-05-01T07:30:15.820Z,10.9
2019-05-01T07:31:15.631Z,10.9
2019-05-01T07:32:15.682Z,10.9
2019-05-01T07:33:16.553Z,10.9
2019-05-01T07:34:16.852Z,10.9
2019-05-01T07:35:15.852Z,10.9
2019-05-01T07:36:16.531Z,10.9
2019-05-01T07:37:15.982Z,10.9
2019-05-01T07:38:16.013Z,10.8
2019-05-01T07:39:16.051Z,10.9
2019-05-01T07:40:16.123Z,10.9
2019-05-01T07:41:16.160Z,10.9
2019-05-01T07:42:16.268Z,11
2019-05-01T07:43:18.882Z,11
2019-05-01T07:44:16.417Z,11.1
2019-05-01T07:45:16.420Z,11.1
2019-05-01T07:46:18.269Z,11.1
2019-05-01T07:47:16.524Z,11.1
2019-05-01T07:48:16.616Z,11.1
2019-05-01T07:49:17.535Z,11.1
2019-05-01T07:50:16.751Z,11.1
2019-05-01T07:51:16.694Z,11.1
2019-05-01T07:52:18.624Z,11.2
2019-05-01T07:53:16.908Z,11.2
2019-05-01T07:54:16.858Z,11.2
2019-05-01T07:55:18.071Z,11.3
2019-05-01T07:56:17.360Z,11.2
2019-05-01T07:57:17.133Z,11.2
2019-05-01T07:58:18.143Z,11.2
2019-05-01T07:59:17.305Z,11.2
2019-05-01T08:00:17.210Z,11.2
2019-05-01T08:01:18.151Z,11.2
2019-05-01T08:02:17.305Z,11.2
2019-05-01T08:03:17.423Z,11.3
2019-05-01T08:04:18.385Z,11.3
2019-05-01T08:05:17.432Z,11.3
2019-05-01T08:06:21.425Z,11.4
2019-05-01T08:07:17.729Z,11.4
2019-05-01T08:08:17.692Z,11.4
2019-05-01T08:09:17.617Z,11.4
2019-05-01T08:10:20.898Z,11.5
2019-05-01T08:11:17.811Z,11.5
2019-05-01T08:12:18.799Z,11.5
2019-05-01T08:13:17.905Z,11.5
2019-05-01T08:14:18.588Z,11.5
2019-05-01T08:15:18.205Z,11.6
2019-05-01T08:16:18.071Z,11.6
2019-05-01T08:17:19.810Z,11.6
2019-05-01T08:18:18.280Z,11.6
2019-05-01T08:19:18.334Z,11.6
2019-05-01T08:20:18.300Z,11.6
2019-05-01T08:21:21.025Z,11.7
2019-05-01T08:22:18.431Z,11.7
2019-05-01T08:23:18.613Z,11.7
2019-05-01T08:24:22.808Z,11.7
2019-05-01T08:25:18.632Z,11.8
2019-05-01T08:26:18.718Z,11.9
2019-05-01T08:27:20.165Z,11.9
2019-05-01T08:28:18.810Z,11.8
2019-05-01T08:29:19.076Z,11.8
2019-05-01T08:30:18.903Z,11.9
2019-05-01T08:31:22.929Z,11.9
2019-05-01T08:32:19.015Z,11.9
2019-05-01T08:33:19.127Z,11.9
2019-05-01T08:34:20.607Z,12
2019-05-01T08:35:19.188Z,12
2019-05-01T08:36:19.221Z,12
2019-05-01T08:37:22.429Z,12.1
2019-05-01T08:38:19.358Z,12.2
2019-05-01T08:39:19.390Z,12.2
2019-05-01T08:40:20.424Z,12.2
2019-05-01T08:41:19.501Z,12.2
2019-05-01T08:42:19.539Z,12.2
2019-05-01T08:43:19.715Z,12.1
2019-05-01T08:44:19.615Z,12.2
2019-05-01T08:45:19.676Z,12.1
2019-05-01T08:46:19.849Z,12.1
2019-05-01T08:47:20.616Z,12
2019-05-01T08:48:19.934Z,12
2019-05-01T08:49:19.971Z,12
2019-05-01T08:50:24.583Z,12
2019-05-01T08:51:20.050Z,12
2019-05-01T08:52:20.101Z,12
2019-05-01T08:53:22.038Z,12
2019-05-01T08:54:20.309Z,12.1
2019-05-01T08:55:20.234Z,12
2019-05-01T08:56:21.834Z,12.1
2019-05-01T08:57:20.516Z,12.1
2019-05-01T08:58:20.498Z,12.1
2019-05-01T08:59:23.833Z,12
2019-05-01T09:00:20.528Z,12
2019-05-01T09:01:20.562Z,12
2019-05-01T09:02:20.632Z,12
2019-05-01T09:03:20.819Z,12
2019-05-01T09:04:25.102Z,12
2019-05-01T09:05:28.673Z,11.9
2019-05-01T09:06:33.746Z,12
2019-05-01T09:07:23.916Z,12.1
2019-05-01T09:08:21.034Z,12.1
2019-05-01T09:09:21.059Z,12.1
2019-05-01T09:10:21.838Z,12.1
2019-05-01T09:11:21.143Z,12.1
2019-05-01T09:12:21.330Z,12.1
2019-05-01T09:13:23.675Z,12.1
2019-05-01T09:14:21.421Z,12.1
2019-05-01T09:15:21.403Z,12.1
2019-05-01T09:16:23.323Z,12.1
2019-05-01T09:17:21.465Z,12.1
2019-05-01T09:18:21.535Z,12
2019-05-01T09:19:21.598Z,12
2019-05-01T09:20:21.621Z,12
2019-05-01T09:21:21.673Z,12
2019-05-01T09:22:22.320Z,12
2019-05-01T09:23:21.861Z,12
2019-05-01T09:24:22.997Z,12
2019-05-01T09:25:21.883Z,12
2019-05-01T09:26:21.964Z,12.1
2019-05-01T09:27:23.708Z,12.2
2019-05-01T09:28:22.212Z,12.1
2019-05-01T09:29:27.817Z,12.1
2019-05-01T09:30:26.700Z,12.2
2019-05-01T09:31:22.278Z,12.3
2019-05-01T09:32:22.300Z,12.3
2019-05-01T09:33:26.079Z,12.4
2019-05-01T09:34:22.441Z,12.3
2019-05-01T09:35:22.460Z,12.3
2019-05-01T09:36:22.519Z,12.3
2019-05-01T09:37:22.577Z,12.3
2019-05-01T09:38:22.758Z,12.3
2019-05-01T09:39:22.732Z,12.3
2019-05-01T09:40:22.805Z,12.3
2019-05-01T09:41:22.930Z,12.3
2019-05-01T09:42:23.941Z,12.3
2019-05-01T09:43:23.109Z,12.3
2019-05-01T09:44:23.232Z,12.3
2019-05-01T09:45:23.124Z,12.3
2019-05-01T09:46:23.094Z,12.3
2019-05-01T09:49:31.501Z,12.3
2019-05-01T09:50:25.729Z,12.3
2019-05-01T09:51:23.372Z,12.3
2019-05-01T09:59:05.467Z,12.4
2019-05-01T09:59:23.733Z,12.3
2019-05-01T10:00:23.769Z,12.4
2019-05-01T10:01:30.189Z,12.4
2019-05-01T10:02:27.214Z,12.3
2019-05-01T10:03:23.987Z,12.3
2019-05-01T10:04:25.216Z,12.3
2019-05-01T10:05:28.797Z,12.3
2019-05-01T10:06:24.189Z,12.4
2019-05-01T10:07:28.816Z,12.3
2019-05-01T10:08:24.345Z,12.4
2019-05-01T10:09:26.735Z,12.3
2019-05-01T10:10:24.738Z,12.3
2019-05-01T10:11:24.432Z,12.3
2019-05-01T10:12:24.479Z,12.3
2019-05-01T10:13:24.620Z,12.3
2019-05-01T10:14:24.652Z,12.3
2019-05-01T10:15:24.644Z,12.3
2019-05-01T10:16:24.684Z,12.3
2019-05-01T10:17:24.747Z,12.3
2019-05-01T10:18:24.774Z,12.3
2019-05-01T10:19:24.891Z,12.2
2019-05-01T10:20:24.983Z,12.1
2019-05-01T10:21:27.090Z,12.1
2019-05-01T10:22:24.989Z,12.1
2019-05-01T10:23:25.077Z,12.1
2019-05-01T10:24:25.123Z,12
2019-05-01T10:25:25.132Z,11.9
2019-05-01T10:26:25.483Z,11.9
2019-05-01T10:27:25.249Z,11.9
2019-05-01T10:28:25.293Z,11.9
2019-05-01T10:29:27.475Z,11.9
2019-05-01T10:30:25.487Z,11.9
2019-05-01T10:31:25.437Z,11.9
2019-05-01T10:32:25.499Z,11.9
2019-05-01T10:33:28.892Z,11.9
2019-05-01T10:34:25.648Z,11.9
2019-05-01T10:35:25.690Z,11.9
2019-05-01T10:36:25.721Z,11.8
2019-05-01T10:37:28.202Z,11.8
2019-05-01T10:38:26.074Z,11.8
2019-05-01T10:39:25.968Z,11.8
2019-05-01T10:40:26.915Z,11.7
2019-05-01T10:41:25.932Z,11.7
2019-05-01T10:42:25.959Z,11.7
2019-05-01T10:43:26.232Z,11.7
2019-05-01T10:44:26.452Z,11.7
2019-05-01T10:45:26.203Z,11.7
2019-05-01T10:46:26.511Z,11.7
2019-05-01T10:47:26.437Z,11.7
2019-05-01T10:48:26.687Z,11.7
2019-05-01T10:49:27.109Z,11.6
2019-05-01T10:50:26.788Z,11.6
2019-05-01T10:51:26.443Z,11.6
2019-05-01T10:52:26.540Z,11.6
2019-05-01T10:53:26.642Z,11.6
2019-05-01T10:54:26.638Z,11.5
2019-05-01T10:55:26.841Z,11.5
2019-05-01T10:56:26.668Z,11.5
2019-05-01T10:57:26.715Z,11.5
2019-05-01T10:58:26.775Z,11.5
2019-05-01T10:59:26.857Z,11.5
2019-05-01T11:00:26.864Z,11.5
2019-05-01T11:01:27.146Z,11.5
2019-05-01T11:02:26.982Z,11.5
2019-05-01T11:03:27.042Z,11.5
2019-05-01T11:04:27.109Z,11.5
2019-05-01T11:05:27.150Z,11.4
2019-05-01T11:06:27.238Z,11.4
2019-05-01T11:07:27.236Z,11.5
2019-05-01T11:08:27.282Z,11.5
2019-05-01T11:09:27.374Z,11.5
2019-05-01T11:10:27.382Z,11.5
2019-05-01T11:11:27.392Z,11.5
2019-05-01T11:12:27.568Z,11.5
2019-05-01T11:13:27.548Z,11.5
2019-05-01T11:14:27.656Z,11.5
2019-05-01T11:15:27.688Z,11.4
2019-05-01T11:16:27.705Z,11.5
2019-05-01T11:17:27.811Z,11.4
2019-05-01T11:18:27.918Z,11.4
2019-05-01T11:19:29.614Z,11.4
2019-05-01T11:20:27.975Z,11.4
2019-05-01T11:21:28.037Z,11.4
2019-05-01T11:22:28.066Z,11.3
2019-05-01T11:23:28.137Z,11.4
2019-05-01T11:24:28.207Z,11.3
2019-05-01T11:25:28.203Z,11.3
2019-05-01T11:26:28.303Z,11.3
2019-05-01T11:27:28.351Z,11.3
2019-05-01T11:28:28.418Z,11.3
2019-05-01T11:29:28.488Z,11.3
2019-05-01T11:30:28.529Z,11.3
2019-05-01T11:31:28.599Z,11.3
2019-05-01T11:32:28.647Z,11.2
2019-05-01T11:33:28.710Z,11.3
2019-05-01T11:34:28.770Z,11.2
2019-05-01T11:35:28.800Z,11.2
2019-05-01T11:36:28.868Z,11.2
2019-05-01T11:37:28.915Z,11.2
2019-05-01T11:38:29.000Z,11.2
2019-05-01T11:39:29.016Z,11.2
2019-05-01T11:40:29.069Z,11.2
2019-05-01T11:41:29.120Z,11.2
2019-05-01T11:42:29.210Z,11.2
2019-05-01T11:43:29.197Z,11.1
2019-05-01T11:44:29.291Z,11.2
2019-05-01T11:45:29.341Z,11.2
2019-05-01T11:46:29.382Z,11.2
2019-05-01T11:47:29.443Z,11.2
2019-05-01T11:48:30.061Z,11.2
2019-05-01T11:49:29.558Z,11.1
2019-05-01T11:50:29.642Z,11.1
2019-05-01T11:51:29.628Z,11.1
2019-05-01T11:52:29.722Z,11.1
2019-05-01T11:53:29.743Z,11.1
2019-05-01T11:54:29.792Z,11.1
2019-05-01T11:55:29.925Z,11.1
2019-05-01T11:56:30.041Z,11.1
2019-05-01T11:57:30.027Z,11.1
2019-05-01T11:58:30.089Z,11
2019-05-01T11:59:32.564Z,11
2019-05-01T12:00:30.457Z,11
2019-05-01T12:01:30.948Z,11
2019-05-01T12:02:30.295Z,11
2019-05-01T12:03:30.377Z,11
2019-05-01T12:04:30.460Z,11
2019-05-01T12:05:30.491Z,10.9
2019-05-01T12:06:30.608Z,11
2019-05-01T12:07:30.559Z,11
2019-05-01T12:08:30.619Z,11
2019-05-01T12:09:30.698Z,11
2019-05-01T12:10:30.763Z,11
2019-05-01T12:11:31.479Z,11
2019-05-01T12:12:30.835Z,11
2019-05-01T12:13:43.165Z,11
2019-05-01T12:14:31.106Z,11
2019-05-01T12:15:31.048Z,11
2019-05-01T12:16:31.038Z,11
2019-05-01T12:17:31.193Z,11
2019-05-01T12:18:31.227Z,11
2019-05-01T12:19:31.211Z,10.9
2019-05-01T12:20:31.310Z,10.9
2019-05-01T12:21:31.469Z,10.9
2019-05-01T12:22:38.708Z,10.9
2019-05-01T12:23:31.432Z,10.9
2019-05-01T12:24:31.522Z,11
2019-05-01T12:25:31.580Z,11
2019-05-01T12:26:31.584Z,10.9
2019-05-01T12:27:31.722Z,11
2019-05-01T12:28:31.670Z,10.9
2019-05-01T12:29:31.732Z,10.9
2019-05-01T12:30:31.817Z,10.9
2019-05-01T12:31:31.837Z,11
2019-05-01T12:32:31.892Z,10.9
2019-05-01T12:33:33.150Z,11
2019-05-01T12:34:44.171Z,11
2019-05-01T12:37:00.135Z,10.9
2019-05-01T12:37:32.181Z,10.9
2019-05-01T12:38:39.582Z,10.9
2019-05-01T12:56:32.410Z,11
2019-05-01T12:56:33.176Z,11
2019-05-01T12:58:05.049Z,11
2019-05-01T12:58:33.293Z,11
2019-05-01T12:59:33.531Z,11.1
2019-05-01T13:00:33.623Z,11.1
2019-05-01T13:01:33.455Z,11.1
2019-05-01T13:02:33.479Z,11.1
2019-05-01T13:03:33.781Z,11.1
2019-05-01T13:04:33.606Z,11.1
2019-05-01T13:05:33.672Z,11.1
2019-05-01T13:06:33.685Z,11.1
2019-05-01T13:07:33.790Z,11.1
2019-05-01T13:08:55.827Z,11.1
2019-05-01T13:08:55.837Z,11.1
2019-05-01T13:09:34.437Z,11
2019-05-01T13:10:42.140Z,11
2019-05-01T13:11:33.980Z,11
2019-05-01T13:12:39.329Z,11
2019-05-01T13:13:37.131Z,11.1
2019-05-01T13:14:37.992Z,11
2019-05-01T13:15:38.578Z,11
2019-05-01T13:16:37.966Z,11
2019-05-01T13:17:44.099Z,11
2019-05-01T13:18:47.484Z,11
2019-05-01T13:19:47.860Z,11
2019-05-01T13:20:53.158Z,11
2019-05-01T13:21:35.787Z,11
2019-05-01T13:22:42.190Z,11
2019-05-01T13:23:36.520Z,11.1
2019-05-01T13:24:35.299Z,11
2019-05-01T13:25:37.293Z,11.1
2019-05-01T13:26:35.207Z,11.1
2019-05-01T13:27:35.576Z,11.1
2019-05-01T13:28:36.594Z,11.1
2019-05-01T13:29:35.024Z,11.1
2019-05-01T13:30:34.905Z,11.1
2019-05-01T13:31:34.945Z,11.1
2019-05-01T13:32:35.035Z,11.1
2019-05-01T13:33:35.062Z,11.1
2019-05-01T13:34:35.101Z,11.1
2019-05-01T13:35:35.139Z,11.1
2019-05-01T13:36:35.223Z,11.1
2019-05-01T13:37:35.231Z,11.1
2019-05-01T13:38:36.952Z,11.1
2019-05-01T13:39:35.353Z,11.2
2019-05-01T13:40:35.391Z,11.2
2019-05-01T13:41:35.409Z,11.2
2019-05-01T13:42:35.513Z,11.2
2019-05-01T13:43:35.521Z,11.2
2019-05-01T13:44:35.594Z,11.2
2019-05-01T13:45:35.620Z,11.2
2019-05-01T13:46:35.711Z,11.2
2019-05-01T13:47:35.784Z,11.2
2019-05-01T13:48:36.260Z,11.2
2019-05-01T13:49:35.895Z,11.2
2019-05-01T13:50:35.922Z,11.2
2019-05-01T13:51:36.009Z,11.2
2019-05-01T13:52:36.035Z,11.2
2019-05-01T13:53:36.081Z,11.2
2019-05-01T13:54:36.118Z,11.3
2019-05-01T13:55:36.191Z,11.3
2019-05-01T13:56:36.241Z,11.3
2019-05-01T13:57:36.284Z,11.3
2019-05-01T13:58:37.058Z,11.3
2019-05-01T13:59:36.404Z,11.3